Terminal Aerodrome Forecast
Issued by NWS Newport/Morehead City, NC

Home | Current Version | Previous Version | Text Only | Print | Product List | Glossary On
Versions: 1 2 3 4 5 6 7 8 9 10 11 12 13 14 15 16 17 18
000
FTUS42 KMHX 301700
TAFEWN
TAF
KEWN 301738Z 3018/0118 04005KT P6SM FEW035
     FM010800 00000KT 3SM BR SCT005
     FM011300 03004KT P6SM SCT025=

USA.gov is the U.S. government's official web portal to all federal, state and local government web resources and services.